Time;durP1;ratioP1;P1;durP2;ratioP2;P2;SDS_P1;SDS_P2;PMS_P1;PMS_P2;Temp;Humidity;BMP_temperature;BMP_pressure;BME280_temperature;BME280_humidity;BME280_pressure;Samples;Min_cycle;Max_cycle;Signal;HPM_P1;HPM_P2
2023/04/29 00:00:05;;;;;;;38.70;21.90;;;;;;;8.22;69.18;100279.38;5114334;27;20028;-33
2023/04/29 00:02:31;;;;;;;15.13;8.00;;;;;;;8.37;69.08;100290.66;5122874;27;20050;-33
2023/04/29 00:04:57;;;;;;;9.85;5.43;;;;;;;8.52;68.92;100287.06;5112636;27;20047;-33
2023/04/29 00:07:23;;;;;;;22.58;11.88;;;;;;;8.33;68.82;100288.59;5111799;27;20067;-33
2023/04/29 00:09:48;;;;;;;12.38;7.47;;;;;;;7.69;71.86;100281.75;5120019;27;20518;-34
2023/04/29 00:12:13;;;;;;;21.05;11.15;;;;;;;7.65;71.74;100282.13;5103859;27;20055;-35
2023/04/29 00:14:39;;;;;;;29.65;17.52;;;;;;;7.57;71.20;100263.69;5119411;27;20030;-34
2023/04/29 00:17:05;;;;;;;43.05;23.65;;;;;;;7.73;71.94;100278.50;5109095;28;20028;-33
2023/04/29 00:19:30;;;;;;;48.63;24.33;;;;;;;7.58;72.31;100270.66;5108741;28;20027;-33
2023/04/29 00:21:56;;;;;;;41.53;22.02;;;;;;;7.57;72.86;100276.94;5108948;28;20421;-33
2023/04/29 00:24:21;;;;;;;39.10;20.73;;;;;;;7.36;73.48;100256.59;5108700;28;20028;-33
2023/04/29 00:26:47;;;;;;;19.83;10.77;;;;;;;7.43;74.76;100277.88;5107611;28;20118;-33
2023/04/29 00:29:13;;;;;;;16.30;9.23;;;;;;;7.41;74.19;100282.56;5108995;28;20115;-33
2023/04/29 00:31:38;;;;;;;11.00;5.50;;;;;;;7.08;74.58;100290.25;5108867;28;20106;-34
2023/04/29 00:34:04;;;;;;;8.35;5.85;;;;;;;6.76;77.31;100301.16;5108582;28;20027;-33
2023/04/29 00:36:30;;;;;;;8.68;5.90;;;;;;;6.67;78.68;100299.63;5109131;27;20078;-33
2023/04/29 00:38:56;;;;;;;9.10;5.70;;;;;;;6.48;80.37;100305.50;5108659;27;20039;-32
2023/04/29 00:41:22;;;;;;;9.50;5.75;;;;;;;6.46;81.73;100297.78;5107855;28;20031;-33
2023/04/29 00:43:48;;;;;;;8.98;5.88;;;;;;;6.59;81.37;100297.09;5108298;28;20635;-32
2023/04/29 00:46:13;;;;;;;9.05;5.80;;;;;;;6.34;83.70;100294.78;5108083;28;20148;-32
2023/04/29 00:48:40;;;;;;;9.50;5.68;;;;;;;6.42;82.75;100301.81;5107942;28;20028;-32
2023/04/29 00:51:06;;;;;;;9.38;6.28;;;;;;;6.56;82.82;100297.47;5107775;28;20027;-33
2023/04/29 00:53:31;;;;;;;11.18;6.60;;;;;;;6.63;81.70;100298.38;5107976;28;20020;-33
2023/04/29 00:55:59;;;;;;;10.55;6.57;;;;;;;6.68;81.90;100296.00;5108103;28;20027;-33
2023/04/29 00:58:31;;;;;;;10.65;6.28;;;;;;;6.72;81.91;100305.22;5107834;28;20498;-32
2023/04/29 01:00:58;;;;;;;9.75;5.63;;;;;;;6.61;82.33;100300.38;5108127;27;20493;-33
2023/04/29 01:03:24;;;;;;;11.07;7.05;;;;;;;6.76;82.10;100293.22;5108309;28;20045;-33
2023/04/29 01:06:00;;;;;;;36.22;22.35;;;;;;;6.63;81.62;100288.56;5108190;28;20498;-32
2023/04/29 01:09:03;;;;;;;10.20;6.65;;;;;;;6.87;81.80;100291.06;5108012;28;20723;-32
2023/04/29 01:11:37;;;;;;;8.73;6.05;;;;;;;6.58;82.04;100304.22;5108102;28;20030;-32
2023/04/29 01:14:03;;;;;;;10.15;6.80;;;;;;;6.70;81.53;100296.63;5107858;28;20031;-33
2023/04/29 01:16:48;;;;;;;9.75;6.88;;;;;;;6.66;81.23;100275.97;5108015;28;20077;-33
2023/04/29 01:19:25;;;;;;;10.60;6.68;;;;;;;6.71;81.42;100290.28;5107508;28;20076;-32
2023/04/29 01:21:51;;;;;;;10.73;6.93;;;;;;;6.53;80.80;100281.94;5107620;28;20059;-33
2023/04/29 01:24:16;;;;;;;11.93;7.40;;;;;;;6.35;82.42;100280.50;5107813;28;20810;-32
2023/04/29 01:26:48;;;;;;;41.60;24.60;;;;;;;6.52;82.32;100272.34;5107914;28;20031;-32
2023/04/29 01:29:25;;;;;;;15.38;8.82;;;;;;;6.76;81.69;100277.31;5107973;28;20043;-32
2023/04/29 01:32:03;;;;;;;17.33;9.65;;;;;;;6.59;81.11;100249.41;5108020;28;20028;-32
2023/04/29 01:34:47;;;;;;;16.00;8.55;;;;;;;6.40;82.24;100267.53;5107548;28;20032;-33
2023/04/29 01:37:24;;;;;;;9.77;7.47;;;;;;;5.62;87.27;100274.25;5107373;28;20039;-34
2023/04/29 01:40:18;;;;;;;9.88;6.57;;;;;;;5.46;88.39;100277.88;5107657;28;20028;-33
2023/04/29 01:42:46;;;;;;;13.23;6.75;;;;;;;5.97;86.39;100280.66;5106290;27;20036;-32
2023/04/29 01:45:15;;;;;;;;;;;;;;;5.57;86.85;100280.06;5108279;28;20051;-34
2023/04/29 01:47:42;;;;;;;12.50;6.65;;;;;;;5.60;88.28;100270.97;5107345;28;19915;-32
2023/04/29 01:50:07;;;;;;;9.43;6.72;;;;;;;5.93;86.25;100250.25;5107051;28;20023;-32
2023/04/29 01:52:33;;;;;;;12.10;7.43;;;;;;;5.66;87.47;100264.09;5107243;28;20031;-32
2023/04/29 01:54:58;;;;;;;33.28;16.35;;;;;;;4.98;88.82;100264.06;5107070;28;20393;-33
2023/04/29 01:57:24;;;;;;;15.88;9.85;;;;;;;4.69;90.71;100267.44;5107052;28;20495;-34
2023/04/29 01:59:49;;;;;;;8.65;6.15;;;;;;;4.78;91.52;100261.91;5106818;28;20118;-34
2023/04/29 02:02:14;;;;;;;9.60;5.93;;;;;;;4.95;91.57;100267.88;5107234;28;20139;-32
2023/04/29 02:04:41;;;;;;;10.77;6.15;;;;;;;4.87;91.47;100264.50;5106695;28;20035;-32
2023/04/29 02:07:07;;;;;;;9.75;6.68;;;;;;;5.00;91.31;100267.34;5107167;28;20143;-33
2023/04/29 02:09:32;;;;;;;11.85;6.70;;;;;;;5.03;90.73;100248.50;5104842;28;20134;-33
2023/04/29 02:11:57;;;;;;;11.95;6.70;;;;;;;5.48;89.31;100269.75;5092645;28;20038;-33
2023/04/29 02:14:23;;;;;;;11.02;7.10;;;;;;;5.34;89.85;100266.09;5113955;27;20213;-32
2023/04/29 02:16:48;;;;;;;15.88;7.95;;;;;;;5.61;88.94;100270.75;5109277;27;20865;-33
2023/04/29 02:19:14;;;;;;;10.32;7.53;;;;;;;5.66;87.96;100279.97;5108982;27;20066;-33
2023/04/29 02:21:39;;;;;;;10.23;7.47;;;;;;;5.71;88.00;100288.22;5123597;27;20035;-32
2023/04/29 02:24:05;;;;;;;11.77;8.48;;;;;;;5.44;88.91;100278.03;5127521;27;20431;-32
2023/04/29 02:26:32;;;;;;;12.23;8.23;;;;;;;5.20;90.62;100281.72;5126952;27;20106;-32
2023/04/29 02:28:58;;;;;;;13.20;8.85;;;;;;;5.58;89.42;100279.06;5127217;27;20027;-32
2023/04/29 02:31:24;;;;;;;11.45;7.35;;;;;;;5.54;88.58;100277.78;5126676;27;20031;-33
2023/04/29 02:33:49;;;;;;;10.45;7.82;;;;;;;5.49;88.30;100285.44;5127260;27;20023;-32
2023/04/29 02:36:15;;;;;;;12.05;8.57;;;;;;;5.60;88.29;100284.19;5126585;27;20023;-33
2023/04/29 02:38:40;;;;;;;13.77;8.85;;;;;;;5.26;90.17;100263.53;5126680;27;20050;-32
2023/04/29 02:41:06;;;;;;;12.75;8.50;;;;;;;5.39;90.36;100276.94;5127226;27;20526;-33
2023/04/29 02:43:31;;;;;;;13.27;8.07;;;;;;;5.64;88.99;100277.53;5126705;27;20026;-33
2023/04/29 02:45:57;;;;;;;13.82;8.23;;;;;;;5.68;88.85;100265.59;5127049;27;20034;-32
2023/04/29 02:48:22;;;;;;;13.18;7.72;;;;;;;5.66;88.45;100269.38;5126358;27;20080;-32
2023/04/29 02:50:48;;;;;;;13.90;8.50;;;;;;;5.68;86.96;100265.59;5126119;27;20031;-33
2023/04/29 02:53:13;;;;;;;12.15;7.47;;;;;;;5.72;86.85;100273.97;5126600;27;20689;-33
2023/04/29 02:55:38;;;;;;;12.13;7.93;;;;;;;5.77;86.95;100279.53;5126570;27;20381;-33
2023/04/29 02:58:04;;;;;;;15.27;9.07;;;;;;;5.54;88.07;100272.50;5126574;27;20064;-32
2023/04/29 03:00:29;;;;;;;24.23;14.68;;;;;;;5.11;90.27;100277.53;5126152;27;20031;-33
2023/04/29 03:02:55;;;;;;;164.90;119.55;;;;;;;4.99;92.67;100277.13;5126586;27;20030;-32
2023/04/29 03:05:20;;;;;;;45.90;30.98;;;;;;;4.64;92.98;100270.59;5125997;27;20043;-32
2023/04/29 03:07:45;;;;;;;36.25;21.45;;;;;;;4.19;94.05;100251.06;5126513;27;20053;-32
2023/04/29 03:10:11;;;;;;;43.85;24.02;;;;;;;4.52;93.01;100274.63;5126025;27;20034;-34
2023/04/29 03:12:38;;;;;;;30.33;19.00;;;;;;;4.47;94.87;100284.88;5126769;27;20030;-32
2023/04/29 03:15:05;;;;;;;31.13;21.92;;;;;;;4.27;96.24;100282.69;5126154;27;20159;-32
2023/04/29 03:17:31;;;;;;;17.55;11.55;;;;;;;4.26;96.55;100277.56;5126579;27;20027;-34
2023/04/29 03:19:57;;;;;;;21.42;13.43;;;;;;;4.80;93.92;100265.19;5125983;27;20023;-34
2023/04/29 03:22:22;;;;;;;22.38;13.20;;;;;;;5.09;91.52;100284.81;5126566;27;20029;-33
2023/04/29 03:24:47;;;;;;;21.23;12.73;;;;;;;4.60;94.15;100279.88;5125159;28;20038;-32
2023/04/29 03:27:13;;;;;;;26.70;14.18;;;;;;;4.21;96.71;100291.28;5126435;27;20077;-32
2023/04/29 03:29:38;;;;;;;24.50;13.57;;;;;;;4.65;95.67;100293.38;5126811;27;20023;-32
2023/04/29 03:32:04;;;;;;;25.52;14.30;;;;;;;4.92;94.00;100304.41;5125748;28;20023;-32
2023/04/29 03:34:29;;;;;;;22.77;14.85;;;;;;;4.84;93.86;100292.06;5126323;27;20411;-34
2023/04/29 03:36:56;;;;;;;15.93;10.20;;;;;;;4.31;96.24;100291.91;5125617;27;20423;-33
2023/04/29 03:39:21;;;;;;;13.75;8.80;;;;;;;4.23;97.44;100292.75;5126312;27;20431;-31
2023/04/29 03:41:47;;;;;;;11.63;8.25;;;;;;;4.20;98.00;100297.56;5125955;27;20031;-33
2023/04/29 03:44:12;;;;;;;15.05;8.25;;;;;;;3.96;98.86;100280.84;5125991;27;20069;-32
2023/04/29 03:46:38;;;;;;;15.57;9.38;;;;;;;4.21;98.77;100312.41;5125980;28;20031;-32
2023/04/29 03:49:03;;;;;;;14.40;8.63;;;;;;;4.46;96.84;100305.19;5125359;27;20466;-32
2023/04/29 03:51:29;;;;;;;16.48;9.68;;;;;;;4.71;96.14;100300.59;5125859;27;20038;-31
2023/04/29 03:53:56;;;;;;;21.80;13.20;;;;;;;4.73;96.29;100311.81;5125538;28;20038;-32
2023/04/29 03:56:22;;;;;;;23.23;14.13;;;;;;;4.69;97.79;100309.69;5125814;27;20501;-33
2023/04/29 03:58:47;;;;;;;33.97;19.02;;;;;;;5.04;96.15;100316.22;5125185;27;20023;-31
2023/04/29 04:01:14;;;;;;;26.90;15.75;;;;;;;5.34;94.64;100313.69;5127156;27;20073;-31
2023/04/29 04:03:39;;;;;;;24.65;14.35;;;;;;;5.69;94.23;100308.72;5129341;27;20023;-31
2023/04/29 04:06:05;;;;;;;21.27;11.63;;;;;;;5.81;93.42;100316.03;5129829;27;20027;-32
2023/04/29 04:08:30;;;;;;;13.98;10.30;;;;;;;5.63;95.50;100320.84;5129653;27;20080;-31
2023/04/29 04:11:01;;;;;;;19.60;12.13;;;;;;;5.64;94.94;100330.44;5129326;27;20464;-32
2023/04/29 04:13:27;;;;;;;21.88;13.52;;;;;;;5.45;96.14;100321.19;5130016;27;20089;-32
2023/04/29 04:15:53;;;;;;;15.50;10.68;;;;;;;5.68;93.98;100320.31;5129303;27;20490;-31
2023/04/29 04:18:18;;;;;;;20.17;12.20;;;;;;;5.79;94.08;100327.81;5111600;27;20544;-32
2023/04/29 04:20:44;;;;;;;14.25;8.55;;;;;;;5.86;94.90;100328.72;5125805;27;20506;-34
2023/04/29 04:23:09;;;;;;;18.13;9.77;;;;;;;5.91;94.09;100321.06;5129632;27;20030;-30
2023/04/29 04:25:35;;;;;;;14.82;9.90;;;;;;;6.23;93.77;100327.00;5129127;27;20037;-32
2023/04/29 04:28:01;;;;;;;12.35;9.00;;;;;;;6.33;92.72;100324.91;5129163;27;20570;-32
2023/04/29 04:30:26;;;;;;;12.38;9.10;;;;;;;6.44;94.07;100316.50;5128963;27;20034;-32
2023/04/29 04:32:51;;;;;;;11.65;8.63;;;;;;;6.61;93.60;100316.28;5128599;27;20598;-31
2023/04/29 04:35:17;;;;;;;13.10;8.75;;;;;;;6.62;91.72;100323.25;5129212;27;20023;-31
2023/04/29 04:37:42;;;;;;;14.02;9.70;;;;;;;6.42;93.82;100321.16;5128690;27;20037;-31
2023/04/29 04:40:10;;;;;;;12.63;8.32;;;;;;;6.40;93.37;100299.34;5128946;27;20110;-31
2023/04/29 04:42:35;;;;;;;15.60;9.38;;;;;;;6.93;93.19;100319.50;5129102;27;20499;-32
2023/04/29 04:45:01;;;;;;;13.00;8.50;;;;;;;6.74;94.90;100316.44;5129260;27;20015;-31
2023/04/29 04:47:27;;;;;;;15.18;9.70;;;;;;;7.00;94.02;100317.72;5128632;27;20574;-31
2023/04/29 04:49:52;;;;;;;12.75;9.27;;;;;;;7.24;92.24;100314.66;5128648;27;20031;-31
2023/04/29 04:52:21;;;;;;;13.57;9.07;;;;;;;7.34;92.15;100308.22;5128942;27;20404;-32
2023/04/29 04:54:46;;;;;;;11.88;8.88;;;;;;;7.10;93.98;100310.25;5128620;27;20037;-32
2023/04/29 04:57:12;;;;;;;18.77;12.60;;;;;;;7.19;92.13;100297.69;5128877;27;20024;-31
2023/04/29 04:59:37;;;;;;;17.42;11.40;;;;;;;7.33;91.93;100311.88;5128436;27;20458;-31
2023/04/29 05:02:03;;;;;;;16.65;10.98;;;;;;;7.79;90.82;100314.06;5128969;27;20152;-34
2023/04/29 05:04:28;;;;;;;16.77;11.57;;;;;;;8.01;89.41;100318.28;5128790;27;20019;-33
2023/04/29 05:06:53;;;;;;;18.02;12.38;;;;;;;7.94;89.07;100320.06;5128392;27;20023;-31
2023/04/29 05:09:19;;;;;;;16.80;12.27;;;;;;;8.01;87.20;100320.94;5128361;27;20074;-33
2023/04/29 05:11:45;;;;;;;18.42;9.88;;;;;;;8.14;85.55;100330.00;5128601;27;20423;-33
2023/04/29 05:14:10;;;;;;;13.40;8.88;;;;;;;8.35;83.41;100327.22;5128122;27;20015;-33
2023/04/29 05:16:36;;;;;;;12.07;8.25;;;;;;;8.53;81.47;100337.34;5127975;27;20089;-33
2023/04/29 05:19:02;;;;;;;12.30;8.20;;;;;;;8.65;80.53;100340.28;5128226;27;20397;-32
2023/04/29 05:21:27;;;;;;;11.27;7.80;;;;;;;8.69;80.18;100344.16;5128003;27;20510;-33
2023/04/29 05:23:53;;;;;;;13.13;7.97;;;;;;;8.88;80.00;100339.13;5128696;27;20030;-31
2023/04/29 05:26:18;;;;;;;10.82;7.47;;;;;;;8.98;76.77;100355.50;5127963;27;20180;-32
2023/04/29 05:28:44;;;;;;;11.73;7.28;;;;;;;8.89;77.47;100356.69;5128227;27;20035;-32
2023/04/29 05:31:10;;;;;;;9.93;7.82;;;;;;;9.00;78.20;100348.94;5127672;27;20020;-32
2023/04/29 05:33:35;;;;;;;15.23;8.32;;;;;;;9.12;78.36;100343.06;5127945;27;20023;-32
2023/04/29 05:36:01;;;;;;;14.48;8.40;;;;;;;9.16;77.01;100350.41;5127969;27;20414;-32
2023/04/29 05:38:27;;;;;;;10.70;8.25;;;;;;;9.38;77.52;100344.94;5127732;27;20094;-34
2023/04/29 05:40:54;;;;;;;10.95;7.22;;;;;;;9.41;77.27;100347.16;5128034;27;20031;-32
2023/04/29 05:43:20;;;;;;;10.75;7.32;;;;;;;9.52;74.24;100341.25;5127698;27;20423;-31
2023/04/29 05:45:46;;;;;;;11.80;7.50;;;;;;;9.76;75.67;100333.63;5128187;27;20034;-31
2023/04/29 05:48:11;;;;;;;12.25;8.15;;;;;;;9.60;75.26;100319.75;5127284;27;20121;-32
2023/04/29 05:50:37;;;;;;;11.57;8.60;;;;;;;9.63;75.42;100331.81;5127805;27;20033;-32
2023/04/29 05:53:03;;;;;;;15.25;10.18;;;;;;;9.84;75.08;100344.06;5127370;27;20023;-32
2023/04/29 05:55:29;;;;;;;15.32;10.15;;;;;;;10.27;72.22;100335.56;5127938;27;20042;-32
2023/04/29 05:57:55;;;;;;;10.57;8.15;;;;;;;10.45;71.60;100338.41;5128080;27;20813;-31
2023/04/29 06:00:20;;;;;;;12.43;8.38;;;;;;;10.70;70.55;100336.88;5127472;27;20114;-33
2023/04/29 06:02:46;;;;;;;28.23;20.13;;;;;;;10.72;71.06;100330.28;5127707;27;20026;-32
2023/04/29 06:05:11;;;;;;;17.25;10.75;;;;;;;10.96;70.20;100336.72;5126809;27;20031;-31
2023/04/29 06:07:38;;;;;;;12.77;8.70;;;;;;;10.70;70.31;100328.88;5127512;27;20031;-32
2023/04/29 06:10:04;;;;;;;11.93;8.07;;;;;;;11.03;69.09;100320.66;5127350;27;21016;-33
2023/04/29 06:12:30;;;;;;;15.13;8.32;;;;;;;11.36;67.47;100314.25;5127375;27;20168;-31
2023/04/29 06:14:55;;;;;;;36.17;26.35;;;;;;;11.64;68.52;100316.50;5127432;27;20043;-33
2023/04/29 06:17:20;;;;;;;13.88;9.13;;;;;;;11.74;67.05;100321.34;5127330;27;20027;-33
2023/04/29 06:19:46;;;;;;;11.63;8.13;;;;;;;11.88;65.85;100311.34;5127190;27;20027;-32
2023/04/29 06:22:11;;;;;;;12.68;8.27;;;;;;;12.03;63.30;100306.47;5126919;27;20016;-32
2023/04/29 06:24:37;;;;;;;11.68;8.02;;;;;;;12.04;64.42;100311.59;5126328;27;20435;-32
2023/04/29 06:27:03;;;;;;;25.60;18.55;;;;;;;12.00;63.36;100307.75;5126861;27;20046;-31
2023/04/29 06:29:29;;;;;;;14.07;9.00;;;;;;;11.96;63.45;100298.53;5127244;27;20077;-31
2023/04/29 06:31:55;;;;;;;13.80;8.07;;;;;;;12.29;63.01;100304.56;5126574;27;20419;-31
2023/04/29 06:34:20;;;;;;;12.60;8.02;;;;;;;12.36;64.18;100299.91;5127219;27;20046;-34
2023/04/29 06:36:46;;;;;;;12.45;9.05;;;;;;;12.34;62.18;100297.50;5127011;27;20087;-32
2023/04/29 06:39:11;;;;;;;14.25;8.20;;;;;;;12.44;63.19;100289.75;5127127;27;20492;-31
2023/04/29 06:41:37;;;;;;;12.98;7.95;;;;;;;12.53;62.55;100286.75;5126904;27;20510;-32
2023/04/29 06:44:02;;;;;;;11.10;7.95;;;;;;;12.60;63.00;100284.81;5126621;27;20023;-31
2023/04/29 06:46:28;;;;;;;10.52;7.72;;;;;;;12.51;64.56;100288.84;5126615;27;20074;-31
2023/04/29 06:48:54;;;;;;;10.60;7.10;;;;;;;13.09;62.15;100285.53;5126624;27;20027;-31
2023/04/29 06:51:19;;;;;;;10.43;7.05;;;;;;;13.02;60.54;100287.50;5126816;27;20023;-31
2023/04/29 06:53:45;;;;;;;12.15;7.03;;;;;;;12.80;60.14;100281.84;5126394;27;20038;-32
2023/04/29 06:56:11;;;;;;;10.77;7.05;;;;;;;12.69;61.26;100272.75;5126691;27;20048;-30
2023/04/29 06:58:37;;;;;;;13.10;7.00;;;;;;;12.94;60.18;100282.47;5126404;27;20158;-32
2023/04/29 07:01:03;;;;;;;9.70;6.72;;;;;;;12.89;59.68;100272.44;5126469;27;20027;-32
2023/04/29 07:03:28;;;;;;;12.60;7.55;;;;;;;13.26;61.68;100281.16;5126562;27;20099;-31
2023/04/29 07:05:54;;;;;;;9.80;6.55;;;;;;;13.21;61.38;100277.53;5126445;27;20122;-34
2023/04/29 07:08:19;;;;;;;11.88;7.13;;;;;;;13.62;59.54;100281.19;5126427;27;20691;-31
2023/04/29 07:10:56;;;;;;;10.90;6.03;;;;;;;13.45;57.12;100271.16;5126346;27;20416;-31
2023/04/29 07:13:21;;;;;;;10.43;6.53;;;;;;;13.71;57.07;100278.94;5126447;27;20033;-31
2023/04/29 07:15:47;;;;;;;11.90;6.40;;;;;;;14.09;55.25;100278.44;5126510;27;20027;-31
2023/04/29 07:18:12;;;;;;;9.65;6.53;;;;;;;13.98;55.60;100282.78;5126168;27;20027;-32
2023/04/29 07:20:38;;;;;;;11.00;6.53;;;;;;;13.73;56.35;100280.38;5126291;27;20415;-32
2023/04/29 07:23:03;;;;;;;12.40;6.43;;;;;;;14.14;56.18;100280.41;5126620;27;20082;-31
2023/04/29 07:25:29;;;;;;;8.73;5.00;;;;;;;14.17;51.74;100279.94;5126502;27;20023;-32
2023/04/29 07:27:56;;;;;;;9.27;5.63;;;;;;;14.22;52.13;100282.72;5126009;27;20059;-32
2023/04/29 07:30:22;;;;;;;8.98;5.72;;;;;;;14.30;53.54;100279.66;5126199;27;20058;-33
2023/04/29 07:32:48;;;;;;;8.02;5.95;;;;;;;14.40;52.99;100284.41;5126467;27;20073;-31
2023/04/29 07:35:13;;;;;;;11.52;5.95;;;;;;;14.56;51.58;100277.50;5125528;27;20019;-32
2023/04/29 07:37:40;;;;;;;10.82;5.90;;;;;;;14.90;51.30;100272.22;5130298;27;20392;-31
2023/04/29 07:40:06;;;;;;;9.23;6.15;;;;;;;14.98;49.73;100274.50;5130188;27;20019;-32
2023/04/29 07:42:32;;;;;;;9.20;6.13;;;;;;;14.60;51.23;100270.59;5130273;27;20549;-31
2023/04/29 07:44:57;;;;;;;11.02;5.90;;;;;;;14.89;53.35;100271.38;5130055;27;20051;-32
2023/04/29 07:47:22;;;;;;;7.50;5.55;;;;;;;15.49;48.57;100269.94;5130363;27;20021;-33
2023/04/29 07:49:48;;;;;;;9.18;6.10;;;;;;;15.53;49.12;100264.88;5129767;27;20034;-31
2023/04/29 07:52:13;;;;;;;7.43;4.82;;;;;;;15.94;49.47;100263.59;5130292;27;20164;-31
2023/04/29 07:54:39;;;;;;;9.32;5.13;;;;;;;15.87;47.78;100254.88;5129848;27;20031;-32
2023/04/29 07:57:04;;;;;;;9.82;5.60;;;;;;;15.82;51.82;100252.16;5129989;27;20031;-31
2023/04/29 07:59:31;;;;;;;9.35;5.63;;;;;;;15.86;51.39;100247.91;5130135;27;20039;-32
2023/04/29 08:01:56;;;;;;;7.60;5.05;;;;;;;16.16;48.39;100254.69;5102039;27;20036;-32
2023/04/29 08:04:22;;;;;;;8.77;4.75;;;;;;;16.12;45.91;100250.88;5089066;28;20072;-31
2023/04/29 08:06:48;;;;;;;8.23;4.90;;;;;;;16.41;45.51;100251.50;5088758;28;20027;-32
2023/04/29 08:09:14;;;;;;;8.65;4.68;;;;;;;16.24;43.61;100254.25;5088798;28;20048;-32
2023/04/29 08:11:40;;;;;;;8.18;4.25;;;;;;;16.01;45.86;100240.00;5088720;28;20070;-32
2023/04/29 08:14:06;;;;;;;6.78;4.05;;;;;;;15.93;45.99;100236.94;5088709;28;20047;-31
2023/04/29 08:16:31;;;;;;;4.72;3.20;;;;;;;16.24;42.62;100238.09;5088744;28;20028;-33
2023/04/29 08:18:56;;;;;;;6.50;3.60;;;;;;;16.16;41.75;100241.25;5088486;28;20024;-31
2023/04/29 08:21:22;;;;;;;6.10;3.80;;;;;;;16.32;41.49;100229.59;5088555;28;20020;-31
2023/04/29 08:23:48;;;;;;;6.85;3.63;;;;;;;16.39;41.06;100222.13;5088753;28;20028;-32
2023/04/29 08:26:13;;;;;;;9.48;3.50;;;;;;;16.68;42.87;100227.25;5088574;28;20028;-32
2023/04/29 08:28:39;;;;;;;5.75;3.42;;;;;;;17.25;40.51;100215.09;5088132;28;20032;-31
2023/04/29 08:31:06;;;;;;;7.03;3.45;;;;;;;17.44;38.68;100212.78;5088617;28;20020;-31
2023/04/29 08:33:35;;;;;;;6.35;2.88;;;;;;;17.39;37.48;100223.53;5088426;28;20028;-32
2023/04/29 08:36:02;;;;;;;7.07;3.30;;;;;;;17.39;36.98;100227.03;5088279;28;20031;-33
2023/04/29 08:38:28;;;;;;;5.88;3.42;;;;;;;17.40;36.56;100219.75;5088090;28;20028;-32
2023/04/29 08:40:55;;;;;;;7.20;3.10;;;;;;;17.44;34.95;100224.34;5087834;28;20028;-32
2023/04/29 08:43:21;;;;;;;4.32;2.70;;;;;;;17.59;35.77;100215.56;5088146;28;20035;-31
2023/04/29 08:45:48;;;;;;;7.60;3.25;;;;;;;17.60;34.13;100201.00;5088426;28;20028;-32
2023/04/29 08:48:15;;;;;;;5.15;2.97;;;;;;;17.26;35.11;100193.28;5086999;28;20019;-31
2023/04/29 08:50:41;;;;;;;6.00;2.70;;;;;;;17.64;35.88;100196.69;5088225;28;20040;-32
2023/04/29 08:53:08;;;;;;;6.95;2.88;;;;;;;17.90;35.89;100199.56;5087963;28;20078;-32
2023/04/29 08:55:52;;;;;;;5.63;2.83;;;;;;;18.19;37.65;100201.78;5088376;28;20556;-32
2023/04/29 08:58:18;;;;;;;7.43;3.70;;;;;;;18.25;37.82;100196.13;5088079;28;20081;-32
2023/04/29 09:00:44;;;;;;;6.07;3.22;;;;;;;18.29;38.97;100196.44;5088071;28;20036;-31
2023/04/29 09:03:24;;;;;;;5.93;3.08;;;;;;;18.07;36.67;100192.03;5088095;28;20028;-31
2023/04/29 09:05:53;;;;;;;6.93;3.15;;;;;;;17.42;36.22;100156.41;5087978;28;20561;-32
2023/04/29 09:08:21;;;;;;;5.93;3.35;;;;;;;17.88;37.19;100182.81;5087715;28;20593;-31
2023/04/29 09:10:47;;;;;;;6.47;3.28;;;;;;;17.83;37.15;100177.38;5087577;28;20117;-32
2023/04/29 09:13:23;;;;;;;5.80;3.05;;;;;;;18.40;35.81;100171.06;5087732;28;20078;-31
2023/04/29 09:15:48;;;;;;;7.85;3.10;;;;;;;18.80;36.54;100180.28;5087842;28;20432;-33
2023/04/29 09:18:47;;;;;;;6.75;3.55;;;;;;;18.63;35.88;100190.50;5087636;28;20476;-33
2023/04/29 09:21:23;;;;;;;7.45;3.45;;;;;;;19.03;33.86;100183.53;5087905;28;20111;-31
2023/04/29 09:23:50;;;;;;;6.18;3.10;;;;;;;18.71;33.60;100176.47;5087945;28;20024;-32
2023/04/29 09:26:16;;;;;;;8.30;3.45;;;;;;;18.84;32.99;100175.97;5087440;28;20459;-34
2023/04/29 09:28:43;;;;;;;5.38;2.85;;;;;;;18.70;33.34;100169.47;5087622;28;20546;-34
2023/04/29 09:31:11;;;;;;;5.25;3.28;;;;;;;18.73;33.63;100168.91;5087327;28;20028;-34
2023/04/29 09:33:50;;;;;;;5.65;2.65;;;;;;;19.18;31.62;100166.47;5087245;28;20028;-31
2023/04/29 09:36:37;;;;;;;5.75;2.65;;;;;;;19.26;31.68;100163.19;5087382;28;20012;-34
2023/04/29 09:39:10;;;;;;;6.75;3.10;;;;;;;19.06;32.40;100151.34;5086987;28;20130;-31
2023/04/29 09:41:51;;;;;;;4.63;2.65;;;;;;;18.78;31.08;100168.13;5087233;28;20040;-31
2023/04/29 09:44:18;;;;;;;8.13;3.08;;;;;;;19.23;30.15;100150.25;5087127;28;20028;-32
2023/04/29 09:46:53;;;;;;;5.70;2.83;;;;;;;19.81;30.57;100158.69;5087150;28;20142;-32
2023/04/29 09:49:27;;;;;;;6.55;2.70;;;;;;;19.77;29.39;100156.84;5087100;28;20069;-31
2023/04/29 09:51:54;;;;;;;4.72;2.63;;;;;;;20.07;28.37;100142.34;5086720;28;20081;-32
2023/04/29 09:54:22;;;;;;;6.65;3.13;;;;;;;19.30;27.21;100128.31;5086886;28;20028;-31
2023/04/29 09:56:50;;;;;;;5.90;2.33;;;;;;;19.44;26.20;100140.16;5086953;28;20051;-31
2023/04/29 09:59:16;;;;;;;5.45;2.53;;;;;;;19.70;27.17;100142.78;5086432;28;20055;-33
2023/04/29 10:01:42;;;;;;;4.82;2.58;;;;;;;20.07;27.85;100121.47;5094017;27;20036;-31
2023/04/29 10:04:11;;;;;;;10.05;3.05;;;;;;;19.82;27.36;100129.75;5086437;28;20405;-31
2023/04/29 10:06:40;;;;;;;5.68;2.65;;;;;;;19.66;28.38;100108.16;5086698;28;20028;-31
2023/04/29 10:09:07;;;;;;;5.25;2.58;;;;;;;20.54;26.10;100116.53;5086639;28;20058;-32
2023/04/29 10:11:33;;;;;;;8.03;2.77;;;;;;;21.00;26.00;100110.72;5086473;28;20028;-31
2023/04/29 10:13:59;;;;;;;4.78;2.83;;;;;;;21.16;28.79;100105.91;5086541;28;20258;-31
2023/04/29 10:16:30;;;;;;;5.25;3.17;;;;;;;20.85;26.31;100103.53;5086348;28;20030;-32
2023/04/29 10:19:02;;;;;;;7.10;2.97;;;;;;;20.29;26.01;100106.72;5086526;28;20032;-31
2023/04/29 10:21:30;;;;;;;5.60;2.80;;;;;;;21.37;25.20;100097.53;5086535;28;20028;-32
2023/04/29 10:23:56;;;;;;;4.35;2.60;;;;;;;21.66;24.02;100100.22;5086362;28;20107;-31
2023/04/29 10:26:26;;;;;;;7.85;2.70;;;;;;;21.39;27.53;100089.91;5086295;28;20024;-31
2023/04/29 10:28:54;;;;;;;5.18;2.45;;;;;;;20.70;24.50;100079.31;5086259;28;20619;-35
2023/04/29 10:31:21;;;;;;;4.25;2.50;;;;;;;20.91;25.70;100089.94;5085784;28;20541;-34
2023/04/29 10:33:48;;;;;;;5.38;2.28;;;;;;;21.19;26.37;100091.78;5086207;28;20042;-34
2023/04/29 10:36:14;;;;;;;3.67;2.30;;;;;;;21.34;27.91;100077.22;5086281;28;20020;-35
2023/04/29 10:38:43;;;;;;;6.55;2.58;;;;;;;21.96;26.82;100076.44;5086021;28;20027;-34
2023/04/29 10:41:19;;;;;;;7.25;2.58;;;;;;;21.60;28.61;100071.53;5085933;28;20070;-34
2023/04/29 10:43:45;;;;;;;4.57;2.55;;;;;;;20.90;28.33;100078.28;5086148;28;20058;-36
2023/04/29 10:46:25;;;;;;;3.95;2.22;;;;;;;21.15;26.47;100058.22;5085739;28;20068;-34
2023/04/29 10:49:00;;;;;;;5.65;2.42;;;;;;;21.09;27.33;100058.56;5085650;28;20020;-35
2023/04/29 10:51:34;;;;;;;5.18;2.40;;;;;;;21.06;26.03;100054.50;5085934;28;20032;-34
2023/04/29 10:54:10;;;;;;;5.40;3.15;;;;;;;21.12;27.13;100069.63;5086173;28;20036;-34
2023/04/29 10:56:43;;;;;;;4.53;2.40;;;;;;;21.46;26.41;100066.00;5085809;28;20024;-32
2023/04/29 10:59:13;;;;;;;7.32;2.85;;;;;;;21.89;28.03;100065.16;5085648;28;20027;-35
2023/04/29 11:01:59;;;;;;;4.38;2.53;;;;;;;22.40;26.29;100067.88;5085570;28;20024;-32
2023/04/29 11:04:25;;;;;;;5.10;2.55;;;;;;;21.74;25.82;100056.13;5085307;28;20044;-31
2023/04/29 11:06:53;;;;;;;7.32;2.40;;;;;;;22.30;26.21;100054.47;5085762;28;20027;-32
2023/04/29 11:09:36;;;;;;;4.25;2.35;;;;;;;22.25;26.63;100055.38;5085618;28;20056;-34
2023/04/29 11:12:04;;;;;;;3.08;2.25;;;;;;;21.63;27.17;100058.16;5085408;28;20028;-33
2023/04/29 11:14:29;;;;;;;4.82;2.10;;;;;;;21.45;26.17;100045.38;5085496;28;20036;-32
2023/04/29 11:17:00;;;;;;;5.32;2.65;;;;;;;21.77;27.09;100047.38;5085684;28;20024;-32
2023/04/29 11:19:31;;;;;;;5.55;2.40;;;;;;;21.78;25.04;100031.91;5085647;28;20107;-33
2023/04/29 11:22:27;;;;;;;5.45;2.50;;;;;;;21.13;24.68;100038.72;5085357;28;20020;-32
2023/04/29 11:24:54;;;;;;;5.55;1.92;;;;;;;21.46;25.31;100041.59;5084530;28;20532;-32